sensor_id;sensor_type;location;lat;lon;timestamp;pressure;altitude;pressure_sealevel;temperature;humidity
50774;BME280;36745;48.544;8.918;2022-08-19T00:01:37;96940.28;;;20.71;69.42
50774;BME280;36745;48.544;8.918;2022-08-19T00:04:38;96938.75;;;20.70;69.45
50774;BME280;36745;48.544;8.918;2022-08-19T00:07:42;96937.22;;;20.69;69.62
50774;BME280;36745;48.544;8.918;2022-08-19T00:10:43;96939.03;;;20.66;69.70
50774;BME280;36745;48.544;8.918;2022-08-19T00:13:46;96935.69;;;20.68;69.63
50774;BME280;36745;48.544;8.918;2022-08-19T00:16:49;96947.44;;;20.66;69.69
50774;BME280;36745;48.544;8.918;2022-08-19T00:19:51;96935.97;;;20.64;69.77
50774;BME280;36745;48.544;8.918;2022-08-19T00:22:52;96936.75;;;20.65;70.14
50774;BME280;36745;48.544;8.918;2022-08-19T00:25:55;96935.47;;;20.66;70.58
50774;BME280;36745;48.544;8.918;2022-08-19T00:28:56;96930.09;;;20.68;70.69
50774;BME280;36745;48.544;8.918;2022-08-19T00:31:57;96921.94;;;20.70;70.86
50774;BME280;36745;48.544;8.918;2022-08-19T00:35:00;96920.16;;;20.72;71.29
50774;BME280;36745;48.544;8.918;2022-08-19T00:38:01;96916.06;;;20.73;71.49
50774;BME280;36745;48.544;8.918;2022-08-19T00:41:06;96921.19;;;20.69;72.29
50774;BME280;36745;48.544;8.918;2022-08-19T00:44:10;96926.31;;;20.65;72.55
50774;BME280;36745;48.544;8.918;2022-08-19T00:47:12;96939.84;;;20.56;73.00
50774;BME280;36745;48.544;8.918;2022-08-19T00:50:16;96939.13;;;20.49;73.43
50774;BME280;36745;48.544;8.918;2022-08-19T00:53:21;96932.28;;;20.45;73.45
50774;BME280;36745;48.544;8.918;2022-08-19T00:56:23;96942.22;;;20.40;74.26
50774;BME280;36745;48.544;8.918;2022-08-19T00:59:25;96941.44;;;20.45;73.67
50774;BME280;36745;48.544;8.918;2022-08-19T01:02:27;96940.13;;;20.46;74.54
50774;BME280;36745;48.544;8.918;2022-08-19T01:05:28;96935.06;;;20.45;74.57
50774;BME280;36745;48.544;8.918;2022-08-19T01:08:30;96940.91;;;20.41;75.68
50774;BME280;36745;48.544;8.918;2022-08-19T01:11:34;96934.06;;;20.42;76.21
50774;BME280;36745;48.544;8.918;2022-08-19T01:14:39;96936.38;;;20.38;76.82
50774;BME280;36745;48.544;8.918;2022-08-19T01:17:41;96929.53;;;20.34;78.04
50774;BME280;36745;48.544;8.918;2022-08-19T01:20:42;96923.16;;;20.22;77.68
50774;BME280;36745;48.544;8.918;2022-08-19T01:23:44;96940.47;;;20.15;78.25
50774;BME280;36745;48.544;8.918;2022-08-19T01:26:47;96931.84;;;20.13;79.14
50774;BME280;36745;48.544;8.918;2022-08-19T01:29:48;96930.84;;;20.05;78.59
50774;BME280;36745;48.544;8.918;2022-08-19T01:32:51;96926.81;;;19.95;78.95
50774;BME280;36745;48.544;8.918;2022-08-19T01:35:52;96923.25;;;19.89;79.56
50774;BME280;36745;48.544;8.918;2022-08-19T01:38:54;96934.94;;;19.93;79.18
50774;BME280;36745;48.544;8.918;2022-08-19T01:41:55;96934.19;;;19.92;80.06
50774;BME280;36745;48.544;8.918;2022-08-19T01:44:56;96921.72;;;19.88;80.41
50774;BME280;36745;48.544;8.918;2022-08-19T01:47:58;96925.81;;;19.87;79.63
50774;BME280;36745;48.544;8.918;2022-08-19T01:50:59;96916.69;;;19.81;81.59
50774;BME280;36745;48.544;8.918;2022-08-19T01:54:00;96919.22;;;19.79;81.58
50774;BME280;36745;48.544;8.918;2022-08-19T01:57:05;96917.69;;;19.78;81.45
50774;BME280;36745;48.544;8.918;2022-08-19T02:00:11;96923.06;;;19.70;83.22
50774;BME280;36745;48.544;8.918;2022-08-19T02:03:12;96920.00;;;19.68;82.90
50774;BME280;36745;48.544;8.918;2022-08-19T02:06:14;96923.31;;;19.66;82.37
50774;BME280;36745;48.544;8.918;2022-08-19T02:09:17;96917.47;;;19.64;82.92
50774;BME280;36745;48.544;8.918;2022-08-19T02:12:18;96916.72;;;19.58;84.17
50774;BME280;36745;48.544;8.918;2022-08-19T02:15:20;96922.31;;;19.58;83.88
50774;BME280;36745;48.544;8.918;2022-08-19T02:18:21;96923.56;;;19.57;84.31
50774;BME280;36745;48.544;8.918;2022-08-19T02:21:22;96923.56;;;19.63;83.98
50774;BME280;36745;48.544;8.918;2022-08-19T02:24:25;96921.06;;;19.54;83.72
50774;BME280;36745;48.544;8.918;2022-08-19T02:27:27;96915.19;;;19.46;83.85
50774;BME280;36745;48.544;8.918;2022-08-19T02:30:28;96915.69;;;19.39;84.27
50774;BME280;36745;48.544;8.918;2022-08-19T02:33:29;96907.81;;;19.38;84.94
50774;BME280;36745;48.544;8.918;2022-08-19T02:36:30;96907.81;;;19.38;85.26
50774;BME280;36745;48.544;8.918;2022-08-19T02:39:31;96903.72;;;19.39;85.34
50774;BME280;36745;48.544;8.918;2022-08-19T02:42:32;96902.22;;;19.43;85.08
50774;BME280;36745;48.544;8.918;2022-08-19T02:45:35;96900.69;;;19.42;84.99
50774;BME280;36745;48.544;8.918;2022-08-19T02:48:36;96911.13;;;19.36;86.20
50774;BME280;36745;48.544;8.918;2022-08-19T02:51:39;96907.06;;;19.37;86.34
50774;BME280;36745;48.544;8.918;2022-08-19T02:54:41;96912.88;;;19.39;85.81
50774;BME280;36745;48.544;8.918;2022-08-19T02:57:42;96910.34;;;19.41;85.13
50774;BME280;36745;48.544;8.918;2022-08-19T03:00:46;96920.25;;;19.31;86.14
50774;BME280;36745;48.544;8.918;2022-08-19T03:03:49;96901.97;;;19.24;86.75
50774;BME280;36745;48.544;8.918;2022-08-19T03:06:51;96895.34;;;19.22;86.37
50774;BME280;36745;48.544;8.918;2022-08-19T03:09:52;96898.41;;;19.18;86.56
50774;BME280;36745;48.544;8.918;2022-08-19T03:12:53;96908.31;;;19.19;86.79
50774;BME280;36745;48.544;8.918;2022-08-19T03:15:54;96917.47;;;19.14;86.80
50774;BME280;36745;48.544;8.918;2022-08-19T03:18:56;96916.97;;;19.10;87.13
50774;BME280;36745;48.544;8.918;2022-08-19T03:22:00;96911.88;;;19.09;87.46
50774;BME280;36745;48.544;8.918;2022-08-19T03:25:02;96907.56;;;19.08;87.45
50774;BME280;36745;48.544;8.918;2022-08-19T03:28:03;96900.44;;;19.07;87.16
50774;BME280;36745;48.544;8.918;2022-08-19T03:31:10;96909.56;;;19.02;87.59
50774;BME280;36745;48.544;8.918;2022-08-19T03:34:15;96913.41;;;18.99;88.03
50774;BME280;36745;48.544;8.918;2022-08-19T03:37:17;96908.03;;;19.01;87.68
50774;BME280;36745;48.544;8.918;2022-08-19T03:40:19;96911.09;;;18.97;88.30
50774;BME280;36745;48.544;8.918;2022-08-19T03:43:20;96906.78;;;18.96;88.52
50774;BME280;36745;48.544;8.918;2022-08-19T03:46:24;96908.03;;;19.01;88.27
50774;BME280;36745;48.544;8.918;2022-08-19T03:49:29;96914.16;;;19.05;88.72
50774;BME280;36745;48.544;8.918;2022-08-19T03:52:31;96923.78;;;18.93;89.00
50774;BME280;36745;48.544;8.918;2022-08-19T03:55:32;96926.31;;;18.91;89.23
50774;BME280;36745;48.544;8.918;2022-08-19T03:58:33;96934.47;;;18.89;89.46
50774;BME280;36745;48.544;8.918;2022-08-19T04:01:35;96931.91;;;18.91;89.30
50774;BME280;36745;48.544;8.918;2022-08-19T04:04:41;96931.41;;;18.86;89.15
50774;BME280;36745;48.544;8.918;2022-08-19T04:07:43;96930.13;;;18.88;88.75
50774;BME280;36745;48.544;8.918;2022-08-19T04:10:44;96925.31;;;18.82;89.30
50774;BME280;36745;48.544;8.918;2022-08-19T04:13:45;96928.59;;;18.81;89.78
50774;BME280;36745;48.544;8.918;2022-08-19T04:16:48;96931.88;;;18.79;89.83
50774;BME280;36745;48.544;8.918;2022-08-19T04:19:49;96931.88;;;18.79;89.90
50774;BME280;36745;48.544;8.918;2022-08-19T04:22:50;96921.25;;;18.78;90.03
50774;BME280;36745;48.544;8.918;2022-08-19T04:25:51;96924.25;;;18.74;90.10
50774;BME280;36745;48.544;8.918;2022-08-19T04:28:52;96927.59;;;18.78;89.92
50774;BME280;36745;48.544;8.918;2022-08-19T04:31:56;96925.03;;;18.75;90.26
50774;BME280;36745;48.544;8.918;2022-08-19T04:34:57;96922.22;;;18.75;90.12
50774;BME280;36745;48.544;8.918;2022-08-19T04:37:59;96922.00;;;18.78;90.07
50774;BME280;36745;48.544;8.918;2022-08-19T04:41:02;96927.56;;;18.73;90.85
50774;BME280;36745;48.544;8.918;2022-08-19T04:44:22;96928.31;;;18.73;90.67
50774;BME280;36745;48.544;8.918;2022-08-19T04:47:23;96925.53;;;18.73;91.08
50774;BME280;36745;48.544;8.918;2022-08-19T04:50:26;96926.03;;;18.72;91.60
50774;BME280;36745;48.544;8.918;2022-08-19T04:53:28;96924.25;;;18.74;91.75
50774;BME280;36745;48.544;8.918;2022-08-19T04:56:31;96931.88;;;18.79;91.62
50774;BME280;36745;48.544;8.918;2022-08-19T04:59:32;96939.75;;;18.81;91.51
50774;BME280;36745;48.544;8.918;2022-08-19T05:02:34;96945.34;;;18.81;91.85
50774;BME280;36745;48.544;8.918;2022-08-19T05:05:39;96958.31;;;18.78;92.09
50774;BME280;36745;48.544;8.918;2022-08-19T05:08:42;96962.88;;;18.81;92.22
50774;BME280;36745;48.544;8.918;2022-08-19T05:11:44;96958.81;;;18.82;92.26
50774;BME280;36745;48.544;8.918;2022-08-19T05:14:46;96961.84;;;18.84;92.15
50774;BME280;36745;48.544;8.918;2022-08-19T05:17:48;96971.75;;;18.80;92.43
50774;BME280;36745;48.544;8.918;2022-08-19T05:21:09;96991.81;;;18.78;92.18
50774;BME280;36745;48.544;8.918;2022-08-19T05:24:29;96990.28;;;18.77;92.21
50774;BME280;36745;48.544;8.918;2022-08-19T05:27:30;97011.09;;;18.76;92.13
50774;BME280;36745;48.544;8.918;2022-08-19T05:30:31;97018.22;;;18.77;92.14
50774;BME280;36745;48.544;8.918;2022-08-19T05:33:33;97016.94;;;18.78;92.11
50774;BME280;36745;48.544;8.918;2022-08-19T05:36:37;97016.19;;;18.83;92.38
50774;BME280;36745;48.544;8.918;2022-08-19T05:39:40;97022.31;;;18.88;92.77
50774;BME280;36745;48.544;8.918;2022-08-19T05:42:41;97030.69;;;18.88;93.04
50774;BME280;36745;48.544;8.918;2022-08-19T05:45:43;97025.13;;;18.93;93.25
50774;BME280;36745;48.544;8.918;2022-08-19T05:48:45;97026.13;;;18.96;93.14
50774;BME280;36745;48.544;8.918;2022-08-19T05:51:46;97022.34;;;18.99;92.83
50774;BME280;36745;48.544;8.918;2022-08-19T05:54:49;97013.19;;;18.98;93.11
50774;BME280;36745;48.544;8.918;2022-08-19T05:57:51;97019.28;;;18.97;92.88
50774;BME280;36745;48.544;8.918;2022-08-19T06:00:53;97011.16;;;18.99;93.01
50774;BME280;36745;48.544;8.918;2022-08-19T06:03:54;97016.75;;;18.99;93.42
50774;BME280;36745;48.544;8.918;2022-08-19T06:06:58;97019.78;;;19.01;93.34
50774;BME280;36745;48.544;8.918;2022-08-19T06:09:59;97030.19;;;19.00;93.14
50774;BME280;36745;48.544;8.918;2022-08-19T06:13:00;97027.94;;;18.99;93.06
50774;BME280;36745;48.544;8.918;2022-08-19T06:16:01;97022.34;;;18.99;92.95
50774;BME280;36745;48.544;8.918;2022-08-19T06:19:04;97027.94;;;18.99;93.24
50774;BME280;36745;48.544;8.918;2022-08-19T06:22:07;97018.78;;;19.04;93.38
50774;BME280;36745;48.544;8.918;2022-08-19T06:25:10;97017.25;;;19.03;93.77
50774;BME280;36745;48.544;8.918;2022-08-19T06:28:11;97015.72;;;19.02;93.61
50774;BME280;36745;48.544;8.918;2022-08-19T06:31:19;97009.38;;;19.01;93.48
50774;BME280;36745;48.544;8.918;2022-08-19T06:34:21;97016.25;;;19.06;93.37
50774;BME280;36745;48.544;8.918;2022-08-19T06:37:23;97018.31;;;19.11;93.59
50774;BME280;36745;48.544;8.918;2022-08-19T06:40:25;97016.00;;;19.09;93.45
50774;BME280;36745;48.544;8.918;2022-08-19T06:43:28;97022.38;;;19.10;93.90
50774;BME280;36745;48.544;8.918;2022-08-19T06:46:29;97015.25;;;19.09;93.98
50774;BME280;36745;48.544;8.918;2022-08-19T06:49:31;97028.44;;;19.08;93.78
50774;BME280;36745;48.544;8.918;2022-08-19T06:52:34;97026.44;;;19.09;93.71
50774;BME280;36745;48.544;8.918;2022-08-19T06:55:35;97030.47;;;19.08;93.82
50774;BME280;36745;48.544;8.918;2022-08-19T06:58:38;97039.13;;;19.10;93.75
50774;BME280;36745;48.544;8.918;2022-08-19T07:01:46;97041.66;;;19.08;93.93
50774;BME280;36745;48.544;8.918;2022-08-19T07:04:47;97033.78;;;19.12;93.90
50774;BME280;36745;48.544;8.918;2022-08-19T07:07:48;97038.63;;;19.17;93.72
50774;BME280;36745;48.544;8.918;2022-08-19T07:10:50;97040.44;;;19.20;93.65
50774;BME280;36745;48.544;8.918;2022-08-19T07:13:51;97033.78;;;19.17;93.59
50774;BME280;36745;48.544;8.918;2022-08-19T07:16:55;97045.75;;;19.18;93.97
50774;BME280;36745;48.544;8.918;2022-08-19T07:19:56;97051.34;;;19.18;93.89
50774;BME280;36745;48.544;8.918;2022-08-19T07:22:59;97046.25;;;19.22;93.92
50774;BME280;36745;48.544;8.918;2022-08-19T07:26:06;97040.94;;;19.24;93.44
50774;BME280;36745;48.544;8.918;2022-08-19T07:29:08;97040.66;;;19.22;93.28
50774;BME280;36745;48.544;8.918;2022-08-19T07:32:10;97044.22;;;19.22;93.31
50774;BME280;36745;48.544;8.918;2022-08-19T07:35:12;97044.75;;;19.21;93.32
50774;BME280;36745;48.544;8.918;2022-08-19T07:38:15;97046.00;;;19.20;93.11
50774;BME280;36745;48.544;8.918;2022-08-19T07:41:19;97047.03;;;19.22;93.16
50774;BME280;36745;48.544;8.918;2022-08-19T07:44:21;97048.06;;;19.25;93.25
50774;BME280;36745;48.544;8.918;2022-08-19T07:47:23;97049.81;;;19.28;93.53
50774;BME280;36745;48.544;8.918;2022-08-19T07:50:25;97035.88;;;19.34;93.63
50774;BME280;36745;48.544;8.918;2022-08-19T07:53:29;97037.66;;;19.42;93.60
50774;BME280;36745;48.544;8.918;2022-08-19T07:56:31;97039.22;;;19.49;93.30
50774;BME280;36745;48.544;8.918;2022-08-19T07:59:32;97043.31;;;19.53;93.23
50774;BME280;36745;48.544;8.918;2022-08-19T08:02:33;97035.16;;;19.55;93.84
50774;BME280;36745;48.544;8.918;2022-08-19T08:05:34;97040.75;;;19.55;93.58
50774;BME280;36745;48.544;8.918;2022-08-19T08:08:54;97032.38;;;19.61;93.71
50774;BME280;36745;48.544;8.918;2022-08-19T08:12:29;97032.88;;;19.65;93.54
50774;BME280;36745;48.544;8.918;2022-08-19T08:15:31;97040.75;;;19.66;93.30
50774;BME280;36745;48.544;8.918;2022-08-19T08:18:32;97047.88;;;19.67;92.93
50774;BME280;36745;48.544;8.918;2022-08-19T08:21:35;97042.53;;;19.58;92.50
50774;BME280;36745;48.544;8.918;2022-08-19T08:24:36;97046.34;;;19.55;92.33
50774;BME280;36745;48.544;8.918;2022-08-19T08:27:41;97040.25;;;19.51;91.95
50774;BME280;36745;48.544;8.918;2022-08-19T08:30:42;97037.72;;;19.53;92.03
50774;BME280;36745;48.544;8.918;2022-08-19T08:33:55;97035.91;;;19.56;92.08
50774;BME280;36745;48.544;8.918;2022-08-19T08:37:08;97039.50;;;19.62;92.00
50774;BME280;36745;48.544;8.918;2022-08-19T08:40:28;97036.97;;;19.64;91.78
50774;BME280;36745;48.544;8.918;2022-08-19T08:43:45;97040.00;;;19.72;91.84
50774;BME280;36745;48.544;8.918;2022-08-19T08:47:06;97037.19;;;19.72;91.45
50774;BME280;36745;48.544;8.918;2022-08-19T08:53:22;97047.38;;;19.63;90.83
50774;BME280;36745;48.544;8.918;2022-08-19T08:56:25;97056.53;;;19.58;90.59
50774;BME280;36745;48.544;8.918;2022-08-19T08:59:35;97052.47;;;19.59;90.59
50774;BME280;36745;48.544;8.918;2022-08-19T09:02:37;97045.84;;;19.62;90.70
50774;BME280;36745;48.544;8.918;2022-08-19T09:12:47;97051.44;;;19.74;90.61
50774;BME280;36745;48.544;8.918;2022-08-19T09:15:43;97054.75;;;19.72;90.38
50774;BME280;36745;48.544;8.918;2022-08-19T09:18:51;97058.56;;;19.75;90.56
50774;BME280;36745;48.544;8.918;2022-08-19T09:21:55;97059.06;;;19.79;90.40
50774;BME280;36745;48.544;8.918;2022-08-19T09:24:56;97061.59;;;19.77;90.20
50774;BME280;36745;48.544;8.918;2022-08-19T09:27:57;97058.81;;;19.77;89.92
50774;BME280;36745;48.544;8.918;2022-08-19T09:31:03;97056.28;;;19.67;89.18
50774;BME280;36745;48.544;8.918;2022-08-19T09:34:04;97060.34;;;19.66;89.11
50774;BME280;36745;48.544;8.918;2022-08-19T09:37:05;97065.69;;;19.64;89.02
50774;BME280;36745;48.544;8.918;2022-08-19T09:40:07;97069.97;;;19.65;88.49
50774;BME280;36745;48.544;8.918;2022-08-19T09:43:08;97068.22;;;19.68;88.19
50774;BME280;36745;48.544;8.918;2022-08-19T09:46:11;97072.56;;;19.69;88.60
50774;BME280;36745;48.544;8.918;2022-08-19T09:49:15;97086.28;;;19.78;88.72
50774;BME280;36745;48.544;8.918;2022-08-19T09:52:17;97089.34;;;19.91;88.94
50774;BME280;36745;48.544;8.918;2022-08-19T09:55:19;97085.03;;;19.96;88.94
50774;BME280;36745;48.544;8.918;2022-08-19T09:58:28;97093.16;;;20.05;89.10
50774;BME280;36745;48.544;8.918;2022-08-19T10:01:38;97081.69;;;20.03;88.37
50774;BME280;36745;48.544;8.918;2022-08-19T10:05:21;97094.94;;;19.97;87.75
50774;BME280;36745;48.544;8.918;2022-08-19T10:08:41;97091.63;;;19.93;87.94
50774;BME280;36745;48.544;8.918;2022-08-19T10:11:44;97090.34;;;19.94;88.05
50774;BME280;36745;48.544;8.918;2022-08-19T10:14:50;97101.28;;;19.97;87.86
50774;BME280;36745;48.544;8.918;2022-08-19T10:17:54;97100.78;;;19.99;87.86
50774;BME280;36745;48.544;8.918;2022-08-19T10:21:05;97097.47;;;20.06;87.68
50774;BME280;36745;48.544;8.918;2022-08-19T10:24:09;97100.78;;;20.10;87.57
50774;BME280;36745;48.544;8.918;2022-08-19T10:27:10;97091.88;;;20.11;87.41
50774;BME280;36745;48.544;8.918;2022-08-19T10:30:14;97096.97;;;20.13;87.03
50774;BME280;36745;48.544;8.918;2022-08-19T10:33:16;97089.34;;;20.08;86.56
50774;BME280;36745;48.544;8.918;2022-08-19T10:36:20;97097.47;;;20.11;87.03
50774;BME280;36745;48.544;8.918;2022-08-19T10:39:23;97089.59;;;20.10;86.39
50774;BME280;36745;48.544;8.918;2022-08-19T10:42:25;97092.16;;;20.08;86.12
50774;BME280;36745;48.544;8.918;2022-08-19T10:45:27;97079.66;;;20.09;85.64
50774;BME280;36745;48.544;8.918;2022-08-19T10:48:28;97085.50;;;20.11;85.90
50774;BME280;36745;48.544;8.918;2022-08-19T10:51:31;97081.94;;;20.16;85.71
50774;BME280;36745;48.544;8.918;2022-08-19T10:54:50;97088.56;;;20.24;85.79
50774;BME280;36745;48.544;8.918;2022-08-19T10:58:15;97079.94;;;20.33;85.90
50774;BME280;36745;48.544;8.918;2022-08-19T11:01:17;97076.84;;;20.42;85.99
50774;BME280;36745;48.544;8.918;2022-08-19T11:04:19;97081.94;;;20.49;86.01
50774;BME280;36745;48.544;8.918;2022-08-19T11:07:20;97085.22;;;20.59;85.86
50774;BME280;36745;48.544;8.918;2022-08-19T11:10:21;97078.63;;;20.57;84.82
50774;BME280;36745;48.544;8.918;2022-08-19T11:13:24;97082.91;;;20.58;85.13
50774;BME280;36745;48.544;8.918;2022-08-19T11:16:26;97072.97;;;20.62;85.13
50774;BME280;36745;48.544;8.918;2022-08-19T11:19:31;97074.50;;;20.58;84.22
50774;BME280;36745;48.544;8.918;2022-08-19T11:22:32;97079.38;;;20.51;84.08
50774;BME280;36745;48.544;8.918;2022-08-19T11:25:33;97077.34;;;20.46;83.26
50774;BME280;36745;48.544;8.918;2022-08-19T11:28:36;97081.19;;;20.43;83.65
50774;BME280;36745;48.544;8.918;2022-08-19T11:31:41;97076.34;;;20.44;82.69
50774;BME280;36745;48.544;8.918;2022-08-19T11:34:42;97092.38;;;20.49;83.49
50774;BME280;36745;48.544;8.918;2022-08-19T11:37:43;97085.22;;;20.59;84.07
50774;BME280;36745;48.544;8.918;2022-08-19T11:40:44;97080.34;;;20.65;83.79
50774;BME280;36745;48.544;8.918;2022-08-19T11:43:45;97082.88;;;20.69;84.13
50774;BME280;36745;48.544;8.918;2022-08-19T11:46:46;97077.25;;;20.74;84.19
50774;BME280;36745;48.544;8.918;2022-08-19T11:49:47;97083.41;;;20.73;83.68
50774;BME280;36745;48.544;8.918;2022-08-19T11:52:48;97077.53;;;20.71;83.86
50774;BME280;36745;48.544;8.918;2022-08-19T11:55:53;97080.59;;;20.73;83.64
50774;BME280;36745;48.544;8.918;2022-08-19T11:58:57;97079.31;;;20.74;83.84
50774;BME280;36745;48.544;8.918;2022-08-19T12:01:58;97075.22;;;20.75;83.85
50774;BME280;36745;48.544;8.918;2022-08-19T12:04:59;97079.28;;;20.79;83.75
50774;BME280;36745;48.544;8.918;2022-08-19T12:08:04;97076.22;;;20.83;83.78
50774;BME280;36745;48.544;8.918;2022-08-19T12:11:05;97069.84;;;20.88;84.03
50774;BME280;36745;48.544;8.918;2022-08-19T12:14:12;97073.41;;;20.88;83.98
50774;BME280;36745;48.544;8.918;2022-08-19T12:17:14;97066.00;;;20.91;83.76
50774;BME280;36745;48.544;8.918;2022-08-19T12:20:15;97075.16;;;20.97;84.23
50774;BME280;36745;48.544;8.918;2022-08-19T12:23:17;97073.09;;;21.03;84.22
50774;BME280;36745;48.544;8.918;2022-08-19T12:26:18;97069.00;;;21.04;83.98
50774;BME280;36745;48.544;8.918;2022-08-19T12:29:20;97069.00;;;21.04;83.69
50774;BME280;36745;48.544;8.918;2022-08-19T12:32:23;97073.56;;;21.07;84.05
50774;BME280;36745;48.544;8.918;2022-08-19T12:35:25;97072.78;;;21.12;83.91
50774;BME280;36745;48.544;8.918;2022-08-19T12:38:26;97069.22;;;21.12;83.88
50774;BME280;36745;48.544;8.918;2022-08-19T12:41:28;97062.06;;;21.11;83.71
50774;BME280;36745;48.544;8.918;2022-08-19T12:44:29;97063.88;;;21.08;83.58
50774;BME280;36745;48.544;8.918;2022-08-19T12:47:31;97073.84;;;21.15;84.00
50774;BME280;36745;48.544;8.918;2022-08-19T12:50:32;97073.06;;;21.14;84.00
50774;BME280;36745;48.544;8.918;2022-08-19T12:53:33;97063.09;;;21.13;83.57
50774;BME280;36745;48.544;8.918;2022-08-19T12:56:36;97057.78;;;21.15;83.58
50774;BME280;36745;48.544;8.918;2022-08-19T12:59:37;97063.38;;;21.15;83.41
50774;BME280;36745;48.544;8.918;2022-08-19T13:02:40;97065.91;;;21.19;83.60
50774;BME280;36745;48.544;8.918;2022-08-19T13:05:42;97071.00;;;21.20;83.93
50774;BME280;36745;48.544;8.918;2022-08-19T13:08:44;97072.03;;;21.17;83.31
50774;BME280;36745;48.544;8.918;2022-08-19T13:11:45;97071.00;;;21.20;83.82
50774;BME280;36745;48.544;8.918;2022-08-19T13:14:46;97084.75;;;21.18;83.61
50774;BME280;36745;48.544;8.918;2022-08-19T13:17:52;97076.09;;;21.11;83.21
50774;BME280;36745;48.544;8.918;2022-08-19T13:20:53;97067.69;;;21.11;83.50
50774;BME280;36745;48.544;8.918;2022-08-19T13:23:54;97069.97;;;21.12;83.30
50774;BME280;36745;48.544;8.918;2022-08-19T13:26:55;97079.91;;;21.13;83.57
50774;BME280;36745;48.544;8.918;2022-08-19T13:29:56;97083.47;;;21.14;83.14
50774;BME280;36745;48.544;8.918;2022-08-19T13:33:16;97089.09;;;21.14;83.01
50774;BME280;36745;48.544;8.918;2022-08-19T13:36:17;97088.84;;;21.17;83.07
50774;BME280;36745;48.544;8.918;2022-08-19T13:39:18;97081.66;;;21.27;82.98
50774;BME280;36745;48.544;8.918;2022-08-19T13:42:19;97076.78;;;21.33;83.25
50774;BME280;36745;48.544;8.918;2022-08-19T13:45:23;97087.69;;;21.43;83.04
50774;BME280;36745;48.544;8.918;2022-08-19T13:48:26;97075.91;;;21.50;82.48
50774;BME280;36745;48.544;8.918;2022-08-19T13:51:27;97079.03;;;21.41;82.36
50774;BME280;36745;48.544;8.918;2022-08-19T13:54:28;97079.00;;;21.46;83.02
50774;BME280;36745;48.544;8.918;2022-08-19T13:57:29;97077.88;;;21.60;82.66
50774;BME280;36745;48.544;8.918;2022-08-19T14:00:35;97074.00;;;21.69;82.63
50774;BME280;36745;48.544;8.918;2022-08-19T14:03:37;97073.44;;;21.76;82.45
50774;BME280;36745;48.544;8.918;2022-08-19T14:06:38;97064.06;;;21.68;81.58
50774;BME280;36745;48.544;8.918;2022-08-19T14:09:39;97074.75;;;21.75;82.13
50774;BME280;36745;48.544;8.918;2022-08-19T14:12:41;97072.13;;;21.83;82.11
50774;BME280;36745;48.544;8.918;2022-08-19T14:15:42;97063.66;;;21.88;82.33
50774;BME280;36745;48.544;8.918;2022-08-19T14:18:43;97063.91;;;21.90;81.94
50774;BME280;36745;48.544;8.918;2022-08-19T14:21:45;97074.16;;;21.82;79.99
50774;BME280;36745;48.544;8.918;2022-08-19T14:24:46;97074.69;;;21.81;79.28
50774;BME280;36745;48.544;8.918;2022-08-19T14:27:49;97074.16;;;21.82;80.25
50774;BME280;36745;48.544;8.918;2022-08-19T14:30:50;97077.28;;;21.73;78.45
50774;BME280;36745;48.544;8.918;2022-08-19T14:33:53;97078.59;;;21.66;77.46
50774;BME280;36745;48.544;8.918;2022-08-19T14:36:54;97075.75;;;21.72;76.88
50774;BME280;36745;48.544;8.918;2022-08-19T14:39:56;97070.63;;;21.76;76.10
50774;BME280;36745;48.544;8.918;2022-08-19T14:43:00;97068.75;;;21.90;75.57
50774;BME280;36745;48.544;8.918;2022-08-19T14:46:05;97073.19;;;22.09;76.18
50774;BME280;36745;48.544;8.918;2022-08-19T14:49:06;97065.75;;;22.17;74.53
50774;BME280;36745;48.544;8.918;2022-08-19T14:52:09;97071.81;;;22.22;73.30
50774;BME280;36745;48.544;8.918;2022-08-19T14:55:10;97075.34;;;22.28;73.19
50774;BME280;36745;48.544;8.918;2022-08-19T14:58:12;97074.28;;;22.31;72.10
50774;BME280;36745;48.544;8.918;2022-08-19T15:01:15;97072.22;;;22.31;72.05
50774;BME280;36745;48.544;8.918;2022-08-19T15:04:16;97075.22;;;22.39;71.67
50774;BME280;36745;48.544;8.918;2022-08-19T15:07:17;97078.75;;;22.45;71.92
50774;BME280;36745;48.544;8.918;2022-08-19T15:10:19;97075.88;;;22.50;71.10
50774;BME280;36745;48.544;8.918;2022-08-19T15:13:22;97069.50;;;22.50;70.56
50774;BME280;36745;48.544;8.918;2022-08-19T15:16:25;97069.19;;;22.53;70.76
50774;BME280;36745;48.544;8.918;2022-08-19T15:19:27;97072.97;;;22.62;70.98
50774;BME280;36745;48.544;8.918;2022-08-19T15:22:28;97063.16;;;22.68;70.88
50774;BME280;36745;48.544;8.918;2022-08-19T15:25:29;97075.59;;;22.78;70.67
50774;BME280;36745;48.544;8.918;2022-08-19T15:28:30;97079.16;;;22.79;70.75
50774;BME280;36745;48.544;8.918;2022-08-19T15:31:34;97071.34;;;22.72;69.86
50774;BME280;36745;48.544;8.918;2022-08-19T15:34:37;97079.00;;;22.71;70.62
50774;BME280;36745;48.544;8.918;2022-08-19T15:37:38;97082.78;;;22.74;70.43
50774;BME280;36745;48.544;8.918;2022-08-19T15:40:40;97072.34;;;22.69;70.37
50774;BME280;36745;48.544;8.918;2022-08-19T15:43:42;97085.63;;;22.68;70.22
50774;BME280;36745;48.544;8.918;2022-08-19T15:46:44;97083.34;;;22.72;70.74
50774;BME280;36745;48.544;8.918;2022-08-19T15:49:46;97081.00;;;22.76;70.26
50774;BME280;36745;48.544;8.918;2022-08-19T15:52:50;97075.06;;;22.80;70.56
50774;BME280;36745;48.544;8.918;2022-08-19T15:55:52;97089.38;;;22.82;70.13
50774;BME280;36745;48.544;8.918;2022-08-19T15:58:53;97085.25;;;22.83;69.89
50774;BME280;36745;48.544;8.918;2022-08-19T16:02:13;97088.28;;;22.85;70.09
50774;BME280;36745;48.544;8.918;2022-08-19T16:05:32;97099.25;;;22.88;69.91
50774;BME280;36745;48.544;8.918;2022-08-19T16:08:57;97092.56;;;22.91;69.69
50774;BME280;36745;48.544;8.918;2022-08-19T16:12:00;97087.19;;;22.93;70.00
50774;BME280;36745;48.544;8.918;2022-08-19T16:15:01;97087.41;;;22.95;69.52
50774;BME280;36745;48.544;8.918;2022-08-19T16:18:02;97090.28;;;22.90;68.93
50774;BME280;36745;48.544;8.918;2022-08-19T16:21:05;97090.34;;;22.84;68.59